Time;durP1;ratioP1;P1;durP2;ratioP2;P2;SDS_P1;SDS_P2;PMS_P1;PMS_P2;Temp;Humidity;BMP_temperature;BMP_pressure;BME280_temperature;BME280_humidity;BME280_pressure;Samples;Min_cycle;Max_cycle;Signal;HPM_P1;HPM_P2
2023/02/14 00:01:48;;;;;;;;;62.00;46.33;;;;;;;;5045453;28;9660;-80
2023/02/14 00:04:17;;;;;;;;;60.33;46.67;;;;;;;;5045970;28;8896;-79
2023/02/14 00:06:46;;;;;;;;;60.00;48.00;;;;;;;;5045192;28;8832;-81
2023/02/14 00:09:15;;;;;;;;;47.00;41.00;;;;;;;;5047589;28;8857;-80
2023/02/14 00:11:43;;;;;;;;;60.00;47.33;;;;;;;;5047184;28;8854;-80
2023/02/14 00:16:57;;;;;;;;;43.00;37.00;;;;;;;;5044496;28;8843;-80
2023/02/14 00:19:25;;;;;;;;;51.33;44.00;;;;;;;;5044939;28;8948;-79
2023/02/14 00:21:52;;;;;;;;;67.33;52.00;;;;;;;;5046995;28;8858;-80
2023/02/14 00:24:22;;;;;;;;;56.33;45.00;;;;;;;;5048532;28;8949;-79
2023/02/14 00:26:50;;;;;;;;;66.67;52.33;;;;;;;;5045597;28;8846;-80
2023/02/14 00:29:19;;;;;;;;;72.67;57.33;;;;;;;;5048486;28;8989;-80
2023/02/14 00:31:47;;;;;;;;;58.33;47.00;;;;;;;;5044631;28;8803;-79
2023/02/14 00:34:17;;;;;;;;;75.00;56.00;;;;;;;;5046221;28;8857;-79
2023/02/14 00:36:45;;;;;;;;;75.67;59.67;;;;;;;;5049481;28;8994;-80
2023/02/14 00:39:14;;;;;;;;;67.00;53.00;;;;;;;;5047121;28;9828;-81
2023/02/14 00:41:42;;;;;;;;;70.67;54.33;;;;;;;;5049568;28;8803;-80
2023/02/14 00:44:11;;;;;;;;;62.00;51.33;;;;;;;;5047592;28;8864;-80
2023/02/14 00:46:38;;;;;;;;;58.00;48.33;;;;;;;;5049529;28;8873;-80
2023/02/14 00:49:06;;;;;;;;;65.00;51.33;;;;;;;;5044469;28;8856;-80
2023/02/14 00:51:34;;;;;;;;;74.00;58.67;;;;;;;;5043051;28;8848;-81
2023/02/14 00:54:02;;;;;;;;;66.00;55.00;;;;;;;;5041440;28;8854;-80
2023/02/14 00:56:29;;;;;;;;;72.67;56.00;;;;;;;;5043205;28;8851;-79
2023/02/14 00:58:56;;;;;;;;;63.00;49.33;;;;;;;;5046955;28;8951;-80
2023/02/14 01:01:24;;;;;;;;;56.00;49.67;;;;;;;;5048426;28;8936;-80
2023/02/14 01:03:51;;;;;;;;;59.00;48.33;;;;;;;;5035239;28;8841;-80
2023/02/14 01:06:20;;;;;;;;;66.33;53.00;;;;;;;;5042828;28;8860;-80
2023/02/14 01:08:49;;;;;;;;;63.67;51.00;;;;;;;;5042788;28;8929;-79
2023/02/14 01:11:19;;;;;;;;;67.00;54.67;;;;;;;;5052106;28;8945;-79
2023/02/14 01:13:47;;;;;;;;;66.00;53.67;;;;;;;;5043719;28;8835;-79
2023/02/14 01:16:16;;;;;;;;;69.67;51.67;;;;;;;;5040473;28;8850;-80
2023/02/14 01:18:44;;;;;;;;;67.33;53.00;;;;;;;;5050334;28;8838;-80
2023/02/14 01:21:13;;;;;;;;;55.33;43.33;;;;;;;;5044806;28;8842;-80
2023/02/14 01:23:41;;;;;;;;;59.00;46.67;;;;;;;;5043279;28;8847;-81
2023/02/14 01:26:10;;;;;;;;;70.67;54.67;;;;;;;;5035880;28;9659;-81
2023/02/14 01:28:38;;;;;;;;;71.33;57.67;;;;;;;;5039097;28;8978;-83
2023/02/14 01:31:11;;;;;;;;;69.00;53.67;;;;;;;;5030196;28;9625;-80
2023/02/14 01:33:38;;;;;;;;;75.67;59.67;;;;;;;;5041599;28;8854;-80
2023/02/14 01:36:06;;;;;;;;;71.67;57.33;;;;;;;;5033357;28;8872;-79
2023/02/14 01:38:34;;;;;;;;;74.33;58.67;;;;;;;;5042514;28;8997;-79
2023/02/14 01:41:01;;;;;;;;;80.67;65.00;;;;;;;;5044808;28;8870;-80
2023/02/14 01:43:30;;;;;;;;;78.67;61.67;;;;;;;;5044375;28;8785;-78
2023/02/14 01:45:57;;;;;;;;;74.00;60.33;;;;;;;;5039523;28;8811;-79
2023/02/14 01:48:25;;;;;;;;;84.00;62.00;;;;;;;;5044267;28;8836;-79
2023/02/14 01:50:54;;;;;;;;;95.50;71.75;;;;;;;;5042920;28;8855;-79
2023/02/14 01:53:26;;;;;;;;;87.25;67.75;;;;;;;;5044746;28;8858;-79
2023/02/14 01:55:59;;;;;;;;;82.50;64.00;;;;;;;;5044415;28;9632;-79
2023/02/14 01:58:33;;;;;;;;;80.67;62.67;;;;;;;;5046262;28;8855;-79
2023/02/14 02:01:01;;;;;;;;;87.67;69.33;;;;;;;;5041991;28;8791;-79
2023/02/14 02:03:32;;;;;;;;;86.33;67.33;;;;;;;;5043088;28;8849;-79
2023/02/14 02:06:05;;;;;;;;;96.25;70.00;;;;;;;;5044896;28;8847;-79
2023/02/14 02:08:35;;;;;;;;;86.00;64.50;;;;;;;;5040869;28;8834;-79
2023/02/14 02:11:02;;;;;;;;;79.33;60.67;;;;;;;;5044380;28;8849;-80
2023/02/14 02:13:32;;;;;;;;;86.00;65.00;;;;;;;;5038736;28;8862;-79
2023/02/14 02:16:08;;;;;;;;;74.67;59.67;;;;;;;;5044597;28;8840;-80
2023/02/14 02:18:44;;;;;;;;;68.33;54.67;;;;;;;;5037742;28;8837;-80
2023/02/14 02:21:42;;;;;;;;;74.67;54.33;;;;;;;;5042987;28;9621;-78
2023/02/14 02:24:20;;;;;;;;;69.00;54.00;;;;;;;;5046209;28;8867;-80
2023/02/14 02:27:19;;;;;;;;;80.33;59.00;;;;;;;;5045039;28;8932;-80
2023/02/14 02:30:30;;;;;;;;;78.00;59.33;;;;;;;;5045868;28;8844;-79
2023/02/14 02:33:39;;;;;;;;;71.00;58.00;;;;;;;;5049001;28;8823;-79
2023/02/14 02:36:30;;;;;;;;;79.00;61.67;;;;;;;;5047718;28;8843;-79
2023/02/14 02:39:06;;;;;;;;;71.00;55.67;;;;;;;;5044202;28;8880;-80
2023/02/14 02:41:46;;;;;;;;;78.00;61.67;;;;;;;;5049574;28;9007;-79
2023/02/14 02:44:18;;;;;;;;;77.00;58.67;;;;;;;;5045604;28;8870;-79
2023/02/14 02:46:52;;;;;;;;;71.67;57.33;;;;;;;;5044656;28;8836;-80
2023/02/14 02:55:08;;;;;;;;;76.33;58.67;;;;;;;;5046447;28;8820;-80
2023/02/14 02:57:39;;;;;;;;;84.67;60.67;;;;;;;;5046084;28;9671;-79
2023/02/14 03:00:10;;;;;;;;;78.00;60.33;;;;;;;;5041011;28;8829;-80
2023/02/14 03:05:21;;;;;;;;;78.33;59.00;;;;;;;;5042675;28;8920;-80
2023/02/14 03:07:50;;;;;;;;;80.33;62.33;;;;;;;;5048107;28;8848;-80
2023/02/14 03:10:20;;;;;;;;;72.33;55.00;;;;;;;;5040902;28;8870;-80
2023/02/14 03:13:25;;;;;;;;;75.00;56.00;;;;;;;;5047538;28;8836;-80
2023/02/14 03:16:25;;;;;;;;;70.00;58.00;;;;;;;;5018595;28;8997;-81
2023/02/14 03:19:21;;;;;;;;;88.25;66.50;;;;;;;;5048062;28;8862;-80
2023/02/14 03:21:53;;;;;;;;;79.00;63.67;;;;;;;;5042639;28;8838;-80
2023/02/14 03:24:27;;;;;;;;;73.67;61.33;;;;;;;;5045156;28;8873;-79
2023/02/14 03:27:01;;;;;;;;;79.25;59.25;;;;;;;;5043343;28;8969;-80
2023/02/14 03:29:37;;;;;;;;;79.25;63.75;;;;;;;;5043229;28;8846;-80
2023/02/14 03:32:10;;;;;;;;;78.75;63.75;;;;;;;;5044065;28;8928;-80
2023/02/14 03:34:45;;;;;;;;;79.25;58.75;;;;;;;;5047108;28;8846;-79
2023/02/14 03:37:15;;;;;;;;;79.75;62.75;;;;;;;;5042075;28;9668;-79
2023/02/14 03:39:48;;;;;;;;;77.75;62.50;;;;;;;;5044671;28;8844;-80
2023/02/14 03:42:20;;;;;;;;;82.25;61.50;;;;;;;;5044933;28;8892;-79
2023/02/14 03:44:49;;;;;;;;;79.25;60.25;;;;;;;;5047740;28;8879;-79
2023/02/14 03:47:19;;;;;;;;;79.00;61.00;;;;;;;;5041882;28;8873;-79
2023/02/14 03:49:51;;;;;;;;;84.50;63.50;;;;;;;;5045314;28;8832;-79
2023/02/14 03:52:19;;;;;;;;;87.50;66.75;;;;;;;;5047316;28;8977;-79
2023/02/14 03:54:51;;;;;;;;;85.00;66.75;;;;;;;;5042623;28;8873;-79
2023/02/14 03:57:22;;;;;;;;;79.00;61.50;;;;;;;;5041450;28;8882;-80
2023/02/14 03:59:49;;;;;;;;;76.50;61.25;;;;;;;;5041566;28;8969;-80
2023/02/14 04:02:21;;;;;;;;;88.50;65.00;;;;;;;;5044086;28;9594;-81
2023/02/14 04:04:50;;;;;;;;;78.00;59.00;;;;;;;;5041955;28;9659;-80
2023/02/14 04:07:20;;;;;;;;;84.50;63.25;;;;;;;;5043676;28;8856;-80
2023/02/14 04:09:49;;;;;;;;;73.75;57.75;;;;;;;;5041654;28;8846;-80
2023/02/14 04:12:17;;;;;;;;;72.75;58.25;;;;;;;;5030752;28;8838;-80
2023/02/14 04:14:44;;;;;;;;;73.67;58.33;;;;;;;;5035468;28;8861;-79
2023/02/14 04:19:56;;;;;;;;;73.33;58.67;;;;;;;;5042893;28;8814;-82
2023/02/14 04:22:24;;;;;;;;;69.67;56.00;;;;;;;;5049777;28;8824;-80
2023/02/14 04:24:52;;;;;;;;;74.00;57.00;;;;;;;;5044236;28;8873;-80
2023/02/14 04:27:19;;;;;;;;;70.33;56.33;;;;;;;;5049026;28;8848;-80
2023/02/14 04:29:49;;;;;;;;;58.33;49.33;;;;;;;;5042629;28;8830;-80
2023/02/14 04:32:17;;;;;;;;;73.25;57.00;;;;;;;;5044209;28;8819;-80
2023/02/14 04:34:45;;;;;;;;;66.33;52.00;;;;;;;;5046568;28;8849;-78
2023/02/14 04:37:13;;;;;;;;;63.33;51.33;;;;;;;;5046436;28;8859;-79
2023/02/14 04:39:40;;;;;;;;;66.33;53.67;;;;;;;;5048440;28;8853;-80
2023/02/14 04:42:09;;;;;;;;;65.00;49.00;;;;;;;;5048552;28;9715;-80
2023/02/14 04:44:37;;;;;;;;;62.67;53.67;;;;;;;;5049452;28;8853;-80
2023/02/14 04:47:06;;;;;;;;;62.67;52.67;;;;;;;;5041524;28;8847;-80
2023/02/14 04:49:33;;;;;;;;;64.00;53.00;;;;;;;;5043152;28;8855;-79
2023/02/14 04:52:01;;;;;;;;;63.00;50.33;;;;;;;;5044834;28;8840;-80
2023/02/14 04:54:29;;;;;;;;;60.67;46.00;;;;;;;;5042287;28;8831;-79
2023/02/14 04:56:57;;;;;;;;;64.67;47.00;;;;;;;;5045515;28;8839;-79
2023/02/14 04:59:26;;;;;;;;;62.67;51.33;;;;;;;;5043871;28;8839;-80
2023/02/14 05:01:53;;;;;;;;;70.00;50.67;;;;;;;;5043163;28;8787;-81
2023/02/14 05:04:21;;;;;;;;;63.33;51.67;;;;;;;;5040973;28;8839;-80
2023/02/14 05:06:49;;;;;;;;;54.67;43.33;;;;;;;;5044196;28;8974;-80
2023/02/14 05:09:16;;;;;;;;;64.67;50.33;;;;;;;;5042207;28;8866;-81
2023/02/14 05:11:43;;;;;;;;;50.67;45.67;;;;;;;;5044071;28;8863;-80
2023/02/14 05:14:10;;;;;;;;;40.00;39.00;;;;;;;;5041878;28;9010;-80
2023/02/14 05:16:39;;;;;;;;;65.33;52.00;;;;;;;;5040917;28;9243;-81
2023/02/14 05:19:06;;;;;;;;;64.67;51.00;;;;;;;;5039647;28;9013;-81
2023/02/14 05:21:34;;;;;;;;;66.33;52.67;;;;;;;;5043237;28;8839;-81
2023/02/14 05:24:02;;;;;;;;;61.00;46.00;;;;;;;;5041225;28;8925;-81
2023/02/14 05:26:29;;;;;;;;;56.00;42.67;;;;;;;;5049519;28;8965;-81
2023/02/14 05:28:57;;;;;;;;;66.00;55.00;;;;;;;;5046397;28;8858;-80
2023/02/14 05:31:25;;;;;;;;;63.33;51.67;;;;;;;;5044418;28;8808;-80
2023/02/14 05:33:53;;;;;;;;;61.33;50.00;;;;;;;;5043428;28;8844;-80
2023/02/14 05:36:21;;;;;;;;;59.33;49.67;;;;;;;;5045628;28;8886;-80
2023/02/14 05:38:49;;;;;;;;;55.33;43.67;;;;;;;;5049060;28;8867;-81
2023/02/14 05:41:16;;;;;;;;;68.25;52.50;;;;;;;;5041955;28;8823;-80
2023/02/14 05:43:43;;;;;;;;;60.50;51.50;;;;;;;;5046539;28;8847;-80
2023/02/14 05:46:11;;;;;;;;;68.67;56.00;;;;;;;;5044070;28;8973;-81
2023/02/14 05:48:38;;;;;;;;;67.33;52.00;;;;;;;;5040828;28;8912;-81
2023/02/14 05:51:09;;;;;;;;;68.75;54.75;;;;;;;;5047462;28;8932;-81
2023/02/14 05:53:37;;;;;;;;;67.50;55.00;;;;;;;;5040453;28;8858;-80
2023/02/14 05:56:04;;;;;;;;;75.25;56.50;;;;;;;;5046305;28;8850;-81
2023/02/14 05:58:32;;;;;;;;;69.67;58.00;;;;;;;;5048556;28;8992;-80
2023/02/14 06:01:00;;;;;;;;;75.25;59.00;;;;;;;;5050276;28;8784;-79
2023/02/14 06:03:27;;;;;;;;;72.75;57.00;;;;;;;;5053024;28;8831;-80
2023/02/14 06:05:55;;;;;;;;;65.50;52.25;;;;;;;;5047488;28;8852;-81
2023/02/14 06:08:23;;;;;;;;;71.00;56.25;;;;;;;;5050633;28;8876;-81
2023/02/14 06:10:51;;;;;;;;;73.50;60.75;;;;;;;;5044778;28;8830;-80
2023/02/14 06:13:18;;;;;;;;;73.00;59.50;;;;;;;;5047592;28;8867;-81
2023/02/14 06:15:45;;;;;;;;;81.50;63.25;;;;;;;;5048004;28;8830;-85
2023/02/14 06:18:13;;;;;;;;;83.50;61.50;;;;;;;;5043873;28;8986;-82
2023/02/14 06:20:40;;;;;;;;;76.00;61.00;;;;;;;;5045666;28;8849;-82
2023/02/14 06:23:07;;;;;;;;;78.25;58.25;;;;;;;;5046479;28;8973;-83
2023/02/14 06:25:36;;;;;;;;;73.75;55.50;;;;;;;;5044137;28;8866;-83
2023/02/14 06:28:04;;;;;;;;;77.00;63.50;;;;;;;;5047781;28;8997;-84
2023/02/14 06:30:31;;;;;;;;;69.00;56.25;;;;;;;;5042703;28;8791;-83
2023/02/14 06:33:01;;;;;;;;;78.25;60.00;;;;;;;;5050946;28;8854;-83
2023/02/14 06:35:29;;;;;;;;;79.50;61.50;;;;;;;;5043545;28;8847;-83
2023/02/14 06:37:56;;;;;;;;;80.75;63.00;;;;;;;;5041158;28;8862;-83
2023/02/14 06:40:24;;;;;;;;;81.25;60.75;;;;;;;;5043229;28;8900;-83
2023/02/14 06:42:52;;;;;;;;;70.75;55.25;;;;;;;;5043692;28;8883;-82
2023/02/14 06:45:19;;;;;;;;;63.25;50.50;;;;;;;;5044936;28;8865;-83
2023/02/14 06:47:47;;;;;;;;;77.25;60.00;;;;;;;;5048109;28;8884;-82
2023/02/14 06:50:15;;;;;;;;;78.75;62.25;;;;;;;;5047621;28;9650;-84
2023/02/14 06:52:43;;;;;;;;;80.00;60.50;;;;;;;;5043173;28;8885;-75
2023/02/14 06:55:12;;;;;;;;;74.75;60.25;;;;;;;;5030573;28;8828;-76
2023/02/14 07:00:23;;;;;;;;;77.25;60.75;;;;;;;;5046213;28;8867;-74
2023/02/14 07:02:50;;;;;;;;;73.50;60.00;;;;;;;;5042385;28;8949;-75
2023/02/14 07:05:18;;;;;;;;;68.50;56.50;;;;;;;;5039579;28;8844;-74
2023/02/14 07:07:45;;;;;;;;;86.00;65.75;;;;;;;;5047605;28;8901;-74
2023/02/14 07:10:12;;;;;;;;;89.25;68.50;;;;;;;;5040676;28;8886;-75
2023/02/14 07:12:40;;;;;;;;;90.25;67.00;;;;;;;;5044570;28;8882;-75
2023/02/14 07:15:08;;;;;;;;;90.25;69.25;;;;;;;;5022693;28;9611;-74
2023/02/14 07:17:37;;;;;;;;;88.00;68.75;;;;;;;;5042544;28;8880;-74
2023/02/14 07:20:06;;;;;;;;;79.00;66.25;;;;;;;;5043325;28;8846;-74
2023/02/14 07:22:33;;;;;;;;;88.25;68.25;;;;;;;;5047970;28;8954;-74
2023/02/14 07:25:01;;;;;;;;;91.00;67.50;;;;;;;;5037008;28;8844;-76
2023/02/14 07:27:28;;;;;;;;;80.25;62.75;;;;;;;;5036532;28;9640;-78
2023/02/14 07:29:55;;;;;;;;;78.75;63.00;;;;;;;;5043106;28;8973;-75
2023/02/14 07:32:23;;;;;;;;;72.75;58.00;;;;;;;;5039003;28;9233;-76
2023/02/14 07:34:51;;;;;;;;;84.75;66.75;;;;;;;;5049632;28;8851;-76
2023/02/14 07:37:19;;;;;;;;;89.25;68.00;;;;;;;;5042429;28;8853;-75
2023/02/14 07:39:46;;;;;;;;;93.25;74.25;;;;;;;;5043001;28;8838;-75
2023/02/14 07:42:13;;;;;;;;;87.50;66.75;;;;;;;;5041979;28;8848;-75
2023/02/14 07:44:40;;;;;;;;;86.75;67.25;;;;;;;;5047382;28;8893;-76
2023/02/14 07:47:09;;;;;;;;;90.75;69.25;;;;;;;;5043534;28;8856;-75
2023/02/14 07:49:37;;;;;;;;;88.00;68.00;;;;;;;;5046310;28;8941;-77
2023/02/14 07:52:06;;;;;;;;;86.50;67.25;;;;;;;;5049699;28;8824;-75
2023/02/14 07:54:33;;;;;;;;;92.75;71.25;;;;;;;;5043929;28;8872;-75
2023/02/14 07:57:00;;;;;;;;;82.25;65.75;;;;;;;;5046414;28;8841;-76
2023/02/14 07:59:28;;;;;;;;;84.75;64.50;;;;;;;;5046464;28;8863;-76
2023/02/14 08:01:55;;;;;;;;;89.25;70.25;;;;;;;;5039849;28;8823;-78
2023/02/14 08:04:24;;;;;;;;;93.50;70.75;;;;;;;;5043107;28;8893;-76
2023/02/14 08:06:52;;;;;;;;;101.25;72.50;;;;;;;;5044687;28;8832;-76
2023/02/14 08:09:24;;;;;;;;;70.33;56.33;;;;;;;;5044526;28;8884;-76
2023/02/14 08:14:37;;;;;;;;;72.00;54.33;;;;;;;;5043985;28;8867;-76
2023/02/14 08:17:06;;;;;;;;;60.67;48.67;;;;;;;;5042796;28;8892;-75
2023/02/14 08:19:34;;;;;;;;;63.67;47.00;;;;;;;;5041297;28;9621;-75
2023/02/14 08:22:02;;;;;;;;;57.33;48.33;;;;;;;;5038554;28;9640;-73
2023/02/14 08:24:31;;;;;;;;;68.00;53.67;;;;;;;;5046847;28;9032;-75
2023/02/14 08:26:58;;;;;;;;;64.33;52.67;;;;;;;;5039535;28;8844;-74
2023/02/14 08:29:25;;;;;;;;;65.67;54.00;;;;;;;;5042141;28;8866;-74
2023/02/14 08:31:53;;;;;;;;;68.33;54.00;;;;;;;;5035280;28;9275;-73
2023/02/14 08:34:20;;;;;;;;;65.33;50.33;;;;;;;;5039176;28;8850;-74
2023/02/14 08:36:47;;;;;;;;;64.67;50.00;;;;;;;;5044701;28;8865;-74
2023/02/14 08:39:14;;;;;;;;;72.67;59.67;;;;;;;;5042860;28;9625;-74
2023/02/14 08:41:43;;;;;;;;;69.00;56.33;;;;;;;;5042595;28;8976;-74
2023/02/14 08:44:10;;;;;;;;;71.67;56.00;;;;;;;;5038919;28;8858;-74
2023/02/14 08:46:37;;;;;;;;;65.00;48.33;;;;;;;;5043054;28;8985;-74
2023/02/14 08:49:05;;;;;;;;;76.00;57.33;;;;;;;;5039829;28;8921;-74
2023/02/14 08:51:32;;;;;;;;;80.67;59.33;;;;;;;;5047566;28;8872;-73
2023/02/14 08:54:00;;;;;;;;;79.67;59.33;;;;;;;;5046219;28;9010;-73
2023/02/14 08:56:27;;;;;;;;;70.33;55.00;;;;;;;;5042361;28;9317;-72
2023/02/14 08:58:55;;;;;;;;;60.67;51.67;;;;;;;;5037405;28;8977;-72
2023/02/14 09:01:23;;;;;;;;;67.33;54.00;;;;;;;;5038885;28;8803;-73
2023/02/14 09:03:50;;;;;;;;;67.33;49.67;;;;;;;;5043814;28;8949;-72
2023/02/14 09:06:17;;;;;;;;;71.67;55.33;;;;;;;;5047073;28;8985;-72
2023/02/14 09:08:45;;;;;;;;;65.00;52.00;;;;;;;;5040662;28;8858;-73
2023/02/14 09:11:14;;;;;;;;;61.67;50.67;;;;;;;;5044044;28;8989;-72
2023/02/14 09:13:42;;;;;;;;;69.00;56.67;;;;;;;;5045448;28;8869;-72
2023/02/14 09:16:13;;;;;;;;;66.67;55.00;;;;;;;;5039563;28;8903;-72
2023/02/14 09:18:40;;;;;;;;;60.33;50.00;;;;;;;;5041396;28;8860;-72
2023/02/14 09:21:09;;;;;;;;;57.00;46.00;;;;;;;;5042967;28;8886;-72
2023/02/14 09:23:36;;;;;;;;;59.33;51.33;;;;;;;;5044180;28;8825;-72
2023/02/14 09:26:04;;;;;;;;;62.33;48.67;;;;;;;;5042642;28;9009;-72
2023/02/14 09:28:32;;;;;;;;;76.33;61.33;;;;;;;;5041563;28;8847;-72
2023/02/14 09:30:59;;;;;;;;;52.67;47.67;;;;;;;;5029820;28;8835;-73
2023/02/14 09:33:29;;;;;;;;;60.00;49.33;;;;;;;;5022044;28;9003;-72
2023/02/14 09:38:43;;;;;;;;;71.33;58.00;;;;;;;;5019177;28;8844;-71
2023/02/14 09:41:28;;;;;;;;;65.00;53.67;;;;;;;;5024756;28;8869;-72
2023/02/14 09:43:58;;;;;;;;;71.33;52.67;;;;;;;;5023459;28;8847;-72
2023/02/14 09:46:27;;;;;;;;;73.67;55.00;;;;;;;;5017976;28;8879;-72
2023/02/14 09:48:56;;;;;;;;;61.67;50.33;;;;;;;;5021922;28;8845;-72
2023/02/14 09:51:26;;;;;;;;;64.67;52.67;;;;;;;;5017004;28;8871;-74
2023/02/14 09:54:00;;;;;;;;;65.33;51.33;;;;;;;;5026119;28;9668;-72
2023/02/14 09:56:31;;;;;;;;;52.67;42.67;;;;;;;;5023046;28;9037;-72
2023/02/14 09:59:05;;;;;;;;;73.00;58.67;;;;;;;;5023164;28;8961;-72
2023/02/14 10:01:35;;;;;;;;;61.33;48.00;;;;;;;;5036334;28;8800;-72
2023/02/14 10:04:23;;;;;;;;;59.00;47.00;;;;;;;;5038197;28;8824;-73
2023/02/14 10:06:52;;;;;;;;;61.33;51.33;;;;;;;;5039787;28;8996;-73
2023/02/14 10:09:44;;;;;;;;;87.67;68.33;;;;;;;;5040684;28;8816;-72
2023/02/14 10:12:26;;;;;;;;;75.00;59.00;;;;;;;;5038481;28;8874;-72
2023/02/14 10:14:54;;;;;;;;;67.33;56.00;;;;;;;;5034654;28;8828;-72
2023/02/14 10:17:25;;;;;;;;;74.67;58.00;;;;;;;;5041429;28;9779;-72
2023/02/14 10:19:57;;;;;;;;;59.67;51.00;;;;;;;;5042972;28;11532;-72
2023/02/14 10:22:31;;;;;;;;;69.67;55.33;;;;;;;;5038559;28;11511;-72
2023/02/14 10:25:01;;;;;;;;;62.25;47.00;;;;;;;;5038739;28;11436;-72
2023/02/14 10:27:32;;;;;;;;;58.75;47.50;;;;;;;;5038029;28;11515;-72
2023/02/14 10:30:01;;;;;;;;;64.25;49.50;;;;;;;;5037538;28;12420;-71
2023/02/14 10:32:40;;;;;;;;;64.25;51.50;;;;;;;;5039568;28;11498;-72
2023/02/14 10:35:21;;;;;;;;;64.50;49.75;;;;;;;;5039004;28;11711;-73
2023/02/14 10:38:00;;;;;;;;;64.75;54.00;;;;;;;;5036810;28;11583;-76
2023/02/14 10:40:48;;;;;;;;;66.75;54.25;;;;;;;;5041962;28;11551;-73
2023/02/14 10:43:22;;;;;;;;;75.25;58.25;;;;;;;;5046261;28;11724;-73
2023/02/14 10:45:58;;;;;;;;;74.25;56.50;;;;;;;;5043427;28;11684;-73
2023/02/14 10:48:30;;;;;;;;;68.00;55.00;;;;;;;;5050551;28;11756;-73
2023/02/14 10:51:06;;;;;;;;;68.75;55.00;;;;;;;;5047959;28;11557;-73
2023/02/14 10:59:16;;;;;;;;;62.25;51.00;;;;;;;;5041650;28;11597;-73
2023/02/14 11:01:44;;;;;;;;;68.75;55.25;;;;;;;;5044331;28;11621;-72
2023/02/14 11:04:13;;;;;;;;;67.25;53.75;;;;;;;;5042206;28;11569;-74
2023/02/14 11:06:42;;;;;;;;;59.25;50.25;;;;;;;;5040027;28;11643;-73
2023/02/14 11:09:11;;;;;;;;;59.50;48.75;;;;;;;;5043868;28;11525;-73
2023/02/14 11:11:41;;;;;;;;;65.25;51.00;;;;;;;;5048616;28;11909;-72
2023/02/14 11:14:21;;;;;;;;;60.00;49.00;;;;;;;;5040467;28;12429;-74
2023/02/14 11:16:51;;;;;;;;;62.25;49.25;;;;;;;;5042023;28;11588;-73
2023/02/14 11:19:25;;;;;;;;;68.25;53.75;;;;;;;;5041179;28;11477;-71
2023/02/14 11:21:55;;;;;;;;;59.50;48.75;;;;;;;;5047794;28;11590;-72
2023/02/14 11:24:28;;;;;;;;;66.50;52.75;;;;;;;;5040246;28;11444;-71
2023/02/14 11:26:58;;;;;;;;;71.25;55.25;;;;;;;;5045023;28;11541;-71
2023/02/14 11:29:28;;;;;;;;;60.00;48.25;;;;;;;;5040329;28;11473;-72
2023/02/14 11:31:56;;;;;;;;;62.50;50.75;;;;;;;;5042828;28;11488;-72
2023/02/14 11:34:32;;;;;;;;;70.00;55.25;;;;;;;;5043750;28;11594;-73
2023/02/14 11:37:02;;;;;;;;;64.50;51.25;;;;;;;;5046498;28;11301;-74
2023/02/14 11:39:32;;;;;;;;;65.50;52.25;;;;;;;;5039982;28;11228;-72
2023/02/14 11:42:02;;;;;;;;;65.50;50.00;;;;;;;;5042744;28;11310;-71
2023/02/14 11:44:31;;;;;;;;;65.75;53.00;;;;;;;;5046144;28;11189;-70
2023/02/14 11:47:17;;;;;;;;;61.00;49.75;;;;;;;;5041794;28;11907;-72
2023/02/14 11:49:56;;;;;;;;;62.50;50.00;;;;;;;;5040020;28;10890;-71
2023/02/14 11:52:25;;;;;;;;;65.75;50.25;;;;;;;;5040470;28;11438;-71
2023/02/14 11:54:53;;;;;;;;;59.75;48.25;;;;;;;;5037643;28;10860;-72
2023/02/14 11:57:25;;;;;;;;;60.25;50.00;;;;;;;;5046867;28;10903;-72
2023/02/14 11:59:53;;;;;;;;;61.50;48.25;;;;;;;;5037250;28;10598;-71
2023/02/14 12:02:28;;;;;;;;;61.50;50.50;;;;;;;;5044443;28;10482;-71
2023/02/14 12:04:58;;;;;;;;;62.00;50.75;;;;;;;;5038829;28;10566;-71
2023/02/14 12:07:30;;;;;;;;;54.00;45.50;;;;;;;;5040158;28;10462;-72
2023/02/14 12:10:19;;;;;;;;;59.25;50.25;;;;;;;;5039118;28;10129;-72
2023/02/14 12:12:55;;;;;;;;;64.25;51.25;;;;;;;;5040911;28;10205;-73
2023/02/14 12:15:36;;;;;;;;;59.75;47.25;;;;;;;;5041372;28;10305;-74
2023/02/14 12:18:25;;;;;;;;;59.25;49.25;;;;;;;;5039789;28;10105;-71
2023/02/14 12:20:56;;;;;;;;;67.75;53.25;;;;;;;;5042223;28;9966;-71
2023/02/14 12:23:30;;;;;;;;;54.25;45.50;;;;;;;;5043346;28;10126;-73
2023/02/14 12:26:02;;;;;;;;;60.25;47.25;;;;;;;;5048506;28;10085;-73
2023/02/14 12:28:37;;;;;;;;;61.75;50.00;;;;;;;;5044932;28;9998;-72
2023/02/14 12:31:10;;;;;;;;;62.50;49.75;;;;;;;;5045161;28;9809;-71
2023/02/14 12:33:38;;;;;;;;;63.25;49.00;;;;;;;;5047778;28;9905;-73
2023/02/14 12:36:10;;;;;;;;;59.00;47.50;;;;;;;;5046891;28;9826;-72
2023/02/14 12:38:49;;;;;;;;;65.25;54.00;;;;;;;;5047649;28;9702;-72
2023/02/14 12:41:25;;;;;;;;;58.50;47.25;;;;;;;;5039081;28;9955;-72
2023/02/14 12:43:54;;;;;;;;;66.00;50.50;;;;;;;;5045408;28;9612;-72
2023/02/14 12:47:02;;;;;;;;;65.25;51.25;;;;;;;;5050135;28;10538;-72
2023/02/14 12:49:40;;;;;;;;;54.67;46.33;;;;;;;;4978085;28;9830;-71
2023/02/14 12:52:19;;;;;;;;;58.67;47.67;;;;;;;;4976120;28;9470;-71
2023/02/14 12:54:58;;;;;;;;;61.75;49.75;;;;;;;;5021911;28;9342;-71
2023/02/14 12:57:35;;;;;;;;;65.50;52.25;;;;;;;;5045135;28;9470;-71
2023/02/14 13:00:21;;;;;;;;;65.75;52.00;;;;;;;;5042250;28;9514;-71
2023/02/14 13:03:17;;;;;;;;;59.33;48.00;;;;;;;;5042610;28;9534;-72
2023/02/14 13:05:53;;;;;;;;;61.67;49.00;;;;;;;;5043259;28;9460;-71
2023/02/14 13:08:39;;;;;;;;;53.67;46.00;;;;;;;;5038607;28;9295;-72
2023/02/14 13:11:15;;;;;;;;;59.00;48.00;;;;;;;;5042312;28;9826;-72
2023/02/14 13:13:52;;;;;;;;;58.00;45.75;;;;;;;;5039059;28;9078;-73
2023/02/14 13:16:23;;;;;;;;;55.00;44.67;;;;;;;;5043153;28;8877;-73
2023/02/14 13:18:55;;;;;;;;;58.00;47.75;;;;;;;;5040216;28;8986;-73
2023/02/14 13:21:25;;;;;;;;;59.00;49.00;;;;;;;;5044792;28;8862;-73
2023/02/14 13:23:57;;;;;;;;;64.00;49.75;;;;;;;;5041013;28;8885;-71
2023/02/14 13:26:29;;;;;;;;;57.50;46.75;;;;;;;;5046008;28;8852;-73
2023/02/14 13:28:57;;;;;;;;;58.50;46.75;;;;;;;;5043044;28;8953;-73
2023/02/14 13:31:25;;;;;;;;;61.00;48.25;;;;;;;;5044030;28;8823;-72
2023/02/14 13:33:54;;;;;;;;;50.50;43.50;;;;;;;;5040029;28;9663;-71
2023/02/14 13:36:21;;;;;;;;;57.50;46.00;;;;;;;;5044683;28;8847;-72
2023/02/14 13:38:51;;;;;;;;;52.25;44.75;;;;;;;;5039928;28;8846;-73
2023/02/14 13:41:20;;;;;;;;;55.00;45.50;;;;;;;;5036389;28;8823;-73
2023/02/14 13:43:51;;;;;;;;;55.50;46.50;;;;;;;;5041237;28;9316;-72
2023/02/14 13:46:21;;;;;;;;;52.67;43.33;;;;;;;;5044521;28;8849;-72
2023/02/14 13:49:00;;;;;;;;;58.25;46.75;;;;;;;;5045766;28;8861;-72
2023/02/14 13:51:47;;;;;;;;;59.50;49.50;;;;;;;;5044935;28;8850;-71
2023/02/14 13:54:23;;;;;;;;;55.50;44.75;;;;;;;;5046822;28;8825;-71
2023/02/14 13:56:50;;;;;;;;;49.00;41.00;;;;;;;;5042809;28;8949;-72
2023/02/14 13:59:29;;;;;;;;;53.25;44.50;;;;;;;;5043691;28;9645;-71
2023/02/14 14:01:56;;;;;;;;;50.00;41.50;;;;;;;;5037181;28;8803;-71
2023/02/14 14:04:37;;;;;;;;;55.75;45.25;;;;;;;;5040223;28;8882;-71
2023/02/14 14:07:28;;;;;;;;;52.00;43.25;;;;;;;;5039929;28;8838;-71
2023/02/14 14:10:04;;;;;;;;;53.00;44.00;;;;;;;;5040064;28;8985;-73
2023/02/14 14:12:41;;;;;;;;;59.00;47.75;;;;;;;;5040169;28;8826;-73
2023/02/14 14:15:18;;;;;;;;;53.75;43.25;;;;;;;;5041646;28;8855;-73
2023/02/14 14:17:49;;;;;;;;;57.75;46.50;;;;;;;;5040700;28;8870;-72
2023/02/14 14:20:41;;;;;;;;;52.25;44.75;;;;;;;;5036479;28;8896;-73
2023/02/14 14:23:31;;;;;;;;;56.25;45.00;;;;;;;;5039270;28;8908;-73
2023/02/14 14:25:59;;;;;;;;;50.00;42.67;;;;;;;;5047576;28;9757;-72
2023/02/14 14:28:29;;;;;;;;;52.50;44.75;;;;;;;;5041917;28;8870;-73
2023/02/14 14:30:58;;;;;;;;;55.25;44.75;;;;;;;;5041441;28;8864;-72
2023/02/14 14:33:28;;;;;;;;;52.25;43.00;;;;;;;;5045635;28;8856;-76
2023/02/14 14:35:56;;;;;;;;;51.75;42.25;;;;;;;;5042045;28;8851;-72
2023/02/14 14:38:24;;;;;;;;;54.25;46.25;;;;;;;;5041775;28;8859;-71
2023/02/14 14:40:52;;;;;;;;;50.25;40.25;;;;;;;;5043237;28;8838;-72
2023/02/14 14:43:27;;;;;;;;;48.25;41.50;;;;;;;;5041143;28;8870;-72
2023/02/14 14:45:56;;;;;;;;;52.00;42.00;;;;;;;;5041717;28;8839;-73
2023/02/14 14:48:29;;;;;;;;;51.75;43.75;;;;;;;;5050291;28;8881;-71
2023/02/14 14:50:57;;;;;;;;;48.00;40.00;;;;;;;;5048987;28;8865;-72
2023/02/14 14:53:28;;;;;;;;;54.75;46.00;;;;;;;;5047769;28;8840;-72
2023/02/14 14:55:55;;;;;;;;;56.50;44.50;;;;;;;;5050235;28;8849;-71
2023/02/14 14:58:40;;;;;;;;;50.00;42.50;;;;;;;;5046770;28;8842;-72
2023/02/14 15:01:11;;;;;;;;;51.50;41.50;;;;;;;;5049562;28;8924;-71
2023/02/14 15:03:40;;;;;;;;;50.00;41.00;;;;;;;;5027621;28;8848;-72
2023/02/14 15:06:15;;;;;;;;;50.25;40.25;;;;;;;;5046096;28;8963;-71
2023/02/14 15:08:42;;;;;;;;;52.75;44.50;;;;;;;;5052732;28;8845;-72
2023/02/14 15:11:12;;;;;;;;;48.75;40.50;;;;;;;;5054599;28;8990;-72
2023/02/14 15:13:52;;;;;;;;;52.75;44.00;;;;;;;;5049063;28;8867;-71
2023/02/14 15:16:25;;;;;;;;;51.00;42.50;;;;;;;;5044600;28;8837;-71
2023/02/14 15:18:56;;;;;;;;;51.50;42.25;;;;;;;;5039638;28;8860;-71
2023/02/14 15:21:23;;;;;;;;;47.50;39.75;;;;;;;;5042237;28;8984;-73